createdAt,value
2022-10-04T00:00:12.607Z,8.89
2022-10-04T00:01:12.744Z,8.89
2022-10-04T00:02:13.073Z,8.89
2022-10-04T00:03:13.444Z,8.89
2022-10-04T00:04:13.684Z,8.89
2022-10-04T00:05:13.824Z,8.89
2022-10-04T00:06:13.965Z,8.89
2022-10-04T00:07:14.099Z,8.89
2022-10-04T00:08:14.234Z,8.89
2022-10-04T00:09:14.381Z,8.89
2022-10-04T00:10:14.521Z,8.89
2022-10-04T00:11:14.650Z,8.89
2022-10-04T00:12:14.785Z,8.89
2022-10-04T00:13:14.915Z,8.89
2022-10-04T00:14:15.048Z,8.89
2022-10-04T00:15:15.177Z,8.89
2022-10-04T00:16:15.400Z,8.8
2022-10-04T00:17:15.692Z,8.8
2022-10-04T00:18:15.818Z,8.8
2022-10-04T00:19:15.943Z,8.8
2022-10-04T00:20:16.067Z,8.8
2022-10-04T00:21:16.191Z,8.8
2022-10-04T00:22:16.317Z,8.8
2022-10-04T00:23:16.446Z,8.8
2022-10-04T00:24:16.575Z,8.8
2022-10-04T00:25:16.712Z,8.8
2022-10-04T00:26:16.839Z,8.7
2022-10-04T00:27:16.971Z,8.7
2022-10-04T00:28:17.191Z,8.7
2022-10-04T00:29:17.446Z,8.7
2022-10-04T00:30:17.575Z,8.7
2022-10-04T00:31:17.797Z,8.7
2022-10-04T00:32:18.052Z,8.7
2022-10-04T00:33:18.171Z,8.7
2022-10-04T00:34:18.294Z,8.7
2022-10-04T00:35:18.440Z,8.7
2022-10-04T00:36:18.556Z,8.6
2022-10-04T00:37:18.679Z,8.6
2022-10-04T00:38:18.798Z,8.6
2022-10-04T00:39:18.917Z,8.6
2022-10-04T00:40:19.039Z,8.6
2022-10-04T00:41:19.179Z,8.6
2022-10-04T00:42:19.304Z,8.6
2022-10-04T00:43:19.423Z,8.6
2022-10-04T00:44:19.545Z,8.6
2022-10-04T00:45:19.664Z,8.6
2022-10-04T00:46:19.909Z,8.5
2022-10-04T00:47:20.221Z,8.5
2022-10-04T00:48:20.343Z,8.5
2022-10-04T00:49:20.462Z,8.5
2022-10-04T00:50:20.593Z,8.5
2022-10-04T00:51:20.720Z,8.5
2022-10-04T00:52:20.840Z,8.5
2022-10-04T00:53:20.965Z,8.5
2022-10-04T00:54:21.089Z,8.5
2022-10-04T00:55:21.229Z,8.5
2022-10-04T00:56:21.361Z,8.5
2022-10-04T00:57:21.485Z,8.5
2022-10-04T00:58:21.618Z,8.5
2022-10-04T00:59:21.745Z,8.5
2022-10-04T01:00:21.891Z,8.5
2022-10-04T01:01:22.303Z,8.5
2022-10-04T01:02:22.679Z,8.5
2022-10-04T01:03:22.910Z,8.5
2022-10-04T01:04:23.038Z,8.5
2022-10-04T01:05:23.176Z,8.5
2022-10-04T01:06:23.329Z,8.39
2022-10-04T01:07:23.500Z,8.39
2022-10-04T01:08:23.631Z,8.39
2022-10-04T01:09:23.758Z,8.39
2022-10-04T01:10:23.892Z,8.39
2022-10-04T01:11:24.021Z,8.39
2022-10-04T01:12:24.169Z,8.39
2022-10-04T01:13:24.292Z,8.39
2022-10-04T01:14:24.421Z,8.39
2022-10-04T01:15:24.547Z,8.39
2022-10-04T01:16:24.829Z,8.3
2022-10-04T01:17:25.154Z,8.3
2022-10-04T01:18:25.283Z,8.3
2022-10-04T01:19:25.413Z,8.3
2022-10-04T01:20:25.544Z,8.3
2022-10-04T01:21:25.670Z,8.3
2022-10-04T01:22:25.794Z,8.3
2022-10-04T01:23:25.921Z,8.3
2022-10-04T01:24:26.059Z,8.3
2022-10-04T01:25:26.188Z,8.3
2022-10-04T01:26:26.317Z,8.2
2022-10-04T01:27:26.444Z,8.2
2022-10-04T01:28:26.727Z,8.2
2022-10-04T01:29:27.046Z,8.2
2022-10-04T01:30:27.170Z,8.2
2022-10-04T01:31:27.481Z,8.2
2022-10-04T01:32:27.700Z,8.2
2022-10-04T01:33:27.828Z,8.2
2022-10-04T01:34:27.902Z,8.2
2022-10-04T01:35:27.996Z,8.2
2022-10-04T01:36:28.123Z,8.1
2022-10-04T01:37:28.236Z,8.1
2022-10-04T01:38:28.355Z,8.1
2022-10-04T01:39:28.490Z,8.1
2022-10-04T01:40:28.642Z,8.1
2022-10-04T01:41:28.759Z,8.1
2022-10-04T01:42:28.880Z,8.1
2022-10-04T01:43:29.028Z,8.1
2022-10-04T01:44:29.155Z,8.1
2022-10-04T01:45:29.284Z,8.1
2022-10-04T01:46:29.540Z,8.1
2022-10-04T01:47:29.766Z,8.1
2022-10-04T01:48:29.889Z,8.1
2022-10-04T01:49:30.021Z,8.1
2022-10-04T01:50:30.152Z,8.1
2022-10-04T01:51:30.286Z,8.1
2022-10-04T01:52:30.403Z,8.1
2022-10-04T01:53:30.527Z,8.1
2022-10-04T01:54:30.646Z,8.1
2022-10-04T01:55:30.778Z,8.1
2022-10-04T01:56:30.908Z,8
2022-10-04T01:57:31.045Z,8
2022-10-04T01:58:31.162Z,8
2022-10-04T01:59:31.278Z,8
2022-10-04T02:00:31.406Z,8
2022-10-04T02:01:31.758Z,8
2022-10-04T02:02:32.024Z,8
2022-10-04T02:03:32.336Z,8
2022-10-04T02:04:32.684Z,8
2022-10-04T02:05:32.864Z,8
2022-10-04T02:06:32.989Z,7.9
2022-10-04T02:07:33.115Z,7.9
2022-10-04T02:08:33.249Z,7.9
2022-10-04T02:09:33.379Z,7.9
2022-10-04T02:10:33.507Z,7.9
2022-10-04T02:11:33.628Z,7.9
2022-10-04T02:12:33.757Z,7.9
2022-10-04T02:13:33.897Z,7.9
2022-10-04T02:14:34.049Z,7.9
2022-10-04T02:15:34.192Z,7.9
2022-10-04T02:16:34.332Z,7.8
2022-10-04T02:17:34.459Z,7.8
2022-10-04T02:18:34.603Z,7.8
2022-10-04T02:19:34.730Z,7.8
2022-10-04T02:20:34.856Z,7.8
2022-10-04T02:21:35.061Z,7.8
2022-10-04T02:22:35.202Z,7.8
2022-10-04T02:23:35.331Z,7.8
2022-10-04T02:24:35.477Z,7.8
2022-10-04T02:25:35.611Z,7.8
2022-10-04T02:26:35.742Z,7.8
2022-10-04T02:27:35.862Z,7.8
2022-10-04T02:28:36.113Z,7.8
2022-10-04T02:29:36.346Z,7.8
2022-10-04T02:30:36.471Z,7.8
2022-10-04T02:31:36.686Z,7.8
2022-10-04T02:32:36.955Z,7.8
2022-10-04T02:33:37.083Z,7.8
2022-10-04T02:34:37.212Z,7.8
2022-10-04T02:35:37.335Z,7.8
2022-10-04T02:36:37.573Z,7.7
2022-10-04T02:37:37.795Z,7.7
2022-10-04T02:38:37.910Z,7.7
2022-10-04T02:39:38.032Z,7.7
2022-10-04T02:40:38.153Z,7.7
2022-10-04T02:41:38.328Z,7.7
2022-10-04T02:42:38.609Z,7.7
2022-10-04T02:43:38.735Z,7.7
2022-10-04T02:44:38.876Z,7.7
2022-10-04T02:45:39.004Z,7.7
2022-10-04T02:46:39.345Z,7.7
2022-10-04T02:47:39.610Z,7.7
2022-10-04T02:48:39.750Z,7.7
2022-10-04T02:49:39.873Z,7.7
2022-10-04T02:50:40.008Z,7.7
2022-10-04T02:51:40.799Z,7.7
2022-10-04T02:52:41.284Z,7.7
2022-10-04T02:53:41.406Z,7.7
2022-10-04T02:54:41.528Z,7.7
2022-10-04T02:55:41.652Z,7.7
2022-10-04T02:56:41.779Z,7.7
2022-10-04T02:57:41.908Z,7.7
2022-10-04T02:58:42.032Z,7.7
2022-10-04T02:59:42.156Z,7.7
2022-10-04T03:00:42.385Z,7.7
2022-10-04T03:01:43.076Z,7.7
2022-10-04T03:02:43.702Z,7.7
2022-10-04T03:03:43.914Z,7.7
2022-10-04T03:04:44.047Z,7.7
2022-10-04T03:05:44.177Z,7.7
2022-10-04T03:06:44.306Z,7.6
2022-10-04T03:07:44.429Z,7.6
2022-10-04T03:08:44.558Z,7.6
2022-10-04T03:09:44.683Z,7.6
2022-10-04T03:10:44.816Z,7.6
2022-10-04T03:11:45.112Z,7.6
2022-10-04T03:12:45.243Z,7.6
2022-10-04T03:13:45.371Z,7.6
2022-10-04T03:14:45.498Z,7.6
2022-10-04T03:15:45.792Z,7.6
2022-10-04T03:16:46.087Z,7.6
2022-10-04T03:17:46.215Z,7.6
2022-10-04T03:18:46.342Z,7.6
2022-10-04T03:19:46.470Z,7.6
2022-10-04T03:20:46.600Z,7.6
2022-10-04T03:21:46.864Z,7.6
2022-10-04T03:22:47.488Z,7.6
2022-10-04T03:23:47.617Z,7.6
2022-10-04T03:24:47.753Z,7.6
2022-10-04T03:25:47.887Z,7.6
2022-10-04T03:26:48.010Z,7.5
2022-10-04T03:27:48.134Z,7.5
2022-10-04T03:28:48.270Z,7.5
2022-10-04T03:29:48.397Z,7.5
2022-10-04T03:30:48.519Z,7.5
2022-10-04T03:31:48.767Z,7.5
2022-10-04T03:32:49.127Z,7.5
2022-10-04T03:33:49.261Z,7.5
2022-10-04T03:34:49.387Z,7.5
2022-10-04T03:35:49.516Z,7.5
2022-10-04T03:36:49.640Z,7.4
2022-10-04T03:37:49.772Z,7.4
2022-10-04T03:38:49.901Z,7.4
2022-10-04T03:39:50.030Z,7.4
2022-10-04T03:40:50.158Z,7.4
2022-10-04T03:41:50.287Z,7.4
2022-10-04T03:42:50.420Z,7.4
2022-10-04T03:43:50.557Z,7.4
2022-10-04T03:44:50.707Z,7.4
2022-10-04T03:45:50.920Z,7.4
2022-10-04T03:46:51.228Z,7.4
2022-10-04T03:47:51.355Z,7.4
2022-10-04T03:48:51.475Z,7.4
2022-10-04T03:49:51.597Z,7.4
2022-10-04T03:50:51.720Z,7.4
2022-10-04T03:51:51.847Z,7.4
2022-10-04T03:52:51.973Z,7.4
2022-10-04T03:53:52.105Z,7.4
2022-10-04T03:54:52.234Z,7.4
2022-10-04T03:55:52.364Z,7.4
2022-10-04T03:56:52.492Z,7.3
2022-10-04T03:57:52.618Z,7.3
2022-10-04T03:58:52.753Z,7.3
2022-10-04T03:59:52.882Z,7.3
2022-10-04T04:00:53.135Z,7.3
2022-10-04T04:01:53.485Z,7.3
2022-10-04T04:02:53.728Z,7.3
2022-10-04T04:03:53.857Z,7.3
2022-10-04T04:04:53.988Z,7.3
2022-10-04T04:05:54.111Z,7.3
2022-10-04T04:06:54.235Z,7.3
2022-10-04T04:07:54.359Z,7.3
2022-10-04T04:08:54.486Z,7.3
2022-10-04T04:09:54.617Z,7.3
2022-10-04T04:10:54.749Z,7.3
2022-10-04T04:11:54.872Z,7.3
2022-10-04T04:12:55.004Z,7.3
2022-10-04T04:13:55.133Z,7.3
2022-10-04T04:14:55.260Z,7.3
2022-10-04T04:15:55.486Z,7.3
2022-10-04T04:16:55.689Z,7.2
2022-10-04T04:17:55.817Z,7.2
2022-10-04T04:18:55.958Z,7.2
2022-10-04T04:19:56.091Z,7.2
2022-10-04T04:20:56.218Z,7.2
2022-10-04T04:21:56.359Z,7.2
2022-10-04T04:22:56.486Z,7.2
2022-10-04T04:23:56.611Z,7.2
2022-10-04T04:24:56.737Z,7.2
2022-10-04T04:25:56.864Z,7.2
2022-10-04T04:26:56.997Z,7.2
2022-10-04T04:27:57.238Z,7.2
2022-10-04T04:28:57.417Z,7.2
2022-10-04T04:29:57.547Z,7.2
2022-10-04T04:30:57.671Z,7.2
2022-10-04T04:31:57.964Z,7.2
2022-10-04T04:32:58.444Z,7.2
2022-10-04T04:33:58.578Z,7.2
2022-10-04T04:34:58.704Z,7.2
2022-10-04T04:35:58.837Z,7.2
2022-10-04T04:36:58.992Z,7.2
2022-10-04T04:37:59.129Z,7.2
2022-10-04T04:38:59.258Z,7.2
2022-10-04T04:39:59.390Z,7.2
2022-10-04T04:40:59.519Z,7.2
2022-10-04T04:41:59.645Z,7.2
2022-10-04T04:42:59.775Z,7.2
2022-10-04T04:43:59.906Z,7.2
2022-10-04T04:45:00.037Z,7.2
2022-10-04T04:46:27.827Z,7.2
2022-10-04T04:47:28.624Z,7.2
2022-10-04T04:48:28.763Z,7.2
2022-10-04T04:49:28.884Z,7.2
2022-10-04T04:50:29.010Z,7.2
2022-10-04T04:51:29.149Z,7.2
2022-10-04T04:52:29.275Z,7.2
2022-10-04T04:53:29.405Z,7.2
2022-10-04T04:54:29.531Z,7.2
2022-10-04T04:56:02.626Z,7.2
2022-10-04T04:57:05.090Z,7.2
2022-10-04T04:58:05.216Z,7.2
2022-10-04T04:59:05.348Z,7.2
2022-10-04T05:00:05.489Z,7.2
2022-10-04T05:01:05.685Z,7.2
2022-10-04T05:02:06.163Z,7.2
2022-10-04T05:03:06.416Z,7.2
2022-10-04T05:04:06.549Z,7.2
2022-10-04T05:05:06.672Z,7.2
2022-10-04T05:06:06.804Z,7.3
2022-10-04T05:07:06.935Z,7.3
2022-10-04T05:08:07.061Z,7.3
2022-10-04T05:09:07.185Z,7.3
2022-10-04T05:10:07.304Z,7.3
2022-10-04T05:11:07.426Z,7.3
2022-10-04T05:12:07.557Z,7.3
2022-10-04T05:13:07.701Z,7.3
2022-10-04T05:14:07.821Z,7.3
2022-10-04T05:15:07.947Z,7.3
2022-10-04T05:16:08.153Z,7.4
2022-10-04T05:17:08.352Z,7.4
2022-10-04T05:18:08.476Z,7.4
2022-10-04T05:19:08.618Z,7.4
2022-10-04T05:20:08.748Z,7.4
2022-10-04T05:21:08.871Z,7.4
2022-10-04T05:22:08.999Z,7.4
2022-10-04T05:23:09.119Z,7.4
2022-10-04T05:24:09.245Z,7.4
2022-10-04T05:25:09.382Z,7.4
2022-10-04T05:26:09.523Z,7.5
2022-10-04T05:27:09.653Z,7.5
2022-10-04T05:28:09.908Z,7.5
2022-10-04T05:29:10.135Z,7.5
2022-10-04T05:30:10.260Z,7.5
2022-10-04T05:31:10.411Z,7.5
2022-10-04T05:32:10.698Z,7.5
2022-10-04T05:33:10.985Z,7.5
2022-10-04T05:34:11.109Z,7.5
2022-10-04T05:35:11.234Z,7.5
2022-10-04T05:36:11.358Z,7.7
2022-10-04T05:37:11.495Z,7.7
2022-10-04T05:38:11.621Z,7.7
2022-10-04T05:39:11.750Z,7.7
2022-10-04T05:40:11.878Z,7.7
2022-10-04T05:41:12.005Z,7.7
2022-10-04T05:42:12.135Z,7.7
2022-10-04T05:43:12.265Z,7.7
2022-10-04T05:44:12.387Z,7.7
2022-10-04T05:45:12.514Z,7.7
2022-10-04T05:46:12.814Z,7.8
2022-10-04T05:47:13.036Z,7.8
2022-10-04T05:48:13.156Z,7.8
2022-10-04T05:49:19.446Z,7.8
2022-10-04T05:50:19.890Z,7.8
2022-10-04T05:51:20.016Z,7.8
2022-10-04T05:52:20.141Z,7.8
2022-10-04T05:53:20.265Z,7.8
2022-10-04T05:54:20.390Z,7.8
2022-10-04T05:55:20.511Z,7.8
2022-10-04T05:56:20.642Z,7.9
2022-10-04T05:57:20.791Z,7.9
2022-10-04T05:58:20.924Z,7.9
2022-10-04T05:59:21.050Z,7.9
2022-10-04T06:00:21.175Z,7.9
2022-10-04T06:01:21.489Z,7.9
2022-10-04T06:02:21.826Z,7.9
2022-10-04T06:03:22.069Z,7.9
2022-10-04T06:04:22.200Z,7.9
2022-10-04T06:05:29.124Z,7.9
2022-10-04T06:06:29.616Z,8
2022-10-04T06:07:29.744Z,8
2022-10-04T06:08:29.881Z,8
2022-10-04T06:09:30.024Z,8
2022-10-04T06:10:30.165Z,8
2022-10-04T06:11:30.294Z,8
2022-10-04T06:12:30.430Z,8
2022-10-04T06:13:30.554Z,8
2022-10-04T06:14:30.695Z,8
2022-10-04T06:15:30.824Z,8
2022-10-04T06:16:31.126Z,8.1
2022-10-04T06:17:31.340Z,8.1
2022-10-04T06:18:31.468Z,8.1
2022-10-04T06:19:31.647Z,8.1
2022-10-04T06:20:31.789Z,8.1
2022-10-04T06:21:31.915Z,8.1
2022-10-04T06:22:32.047Z,8.1
2022-10-04T06:23:32.176Z,8.1
2022-10-04T06:24:32.305Z,8.1
2022-10-04T06:25:32.461Z,8.1
2022-10-04T06:26:32.719Z,8.2
2022-10-04T06:27:32.839Z,8.2
2022-10-04T06:28:33.148Z,8.2
2022-10-04T06:29:33.478Z,8.2
2022-10-04T06:30:33.686Z,8.2
2022-10-04T06:31:33.896Z,8.2
2022-10-04T06:32:34.055Z,8.2
2022-10-04T06:33:34.185Z,8.2
2022-10-04T06:34:34.327Z,8.2
2022-10-04T06:35:34.463Z,8.2
2022-10-04T06:36:34.596Z,8.3
2022-10-04T06:37:34.725Z,8.3
2022-10-04T06:38:34.854Z,8.3
2022-10-04T06:39:34.982Z,8.3
2022-10-04T06:40:35.116Z,8.3
2022-10-04T06:41:35.240Z,8.3
2022-10-04T06:42:35.374Z,8.3
2022-10-04T06:43:35.503Z,8.3
2022-10-04T06:44:35.645Z,8.3
2022-10-04T06:45:35.774Z,8.3
2022-10-04T06:46:36.094Z,8.5
2022-10-04T06:47:36.382Z,8.5
2022-10-04T06:48:36.510Z,8.5
2022-10-04T06:49:36.641Z,8.5
2022-10-04T06:50:36.769Z,8.5
2022-10-04T06:51:36.923Z,8.5
2022-10-04T06:52:37.098Z,8.5
2022-10-04T06:53:37.232Z,8.5
2022-10-04T06:54:37.373Z,8.5
2022-10-04T06:55:37.506Z,8.5
2022-10-04T06:56:37.635Z,8.7
2022-10-04T06:57:37.772Z,8.7
2022-10-04T06:58:37.908Z,8.7
2022-10-04T06:59:38.045Z,8.7
2022-10-04T07:00:38.182Z,8.7
2022-10-04T07:01:38.526Z,8.7
2022-10-04T07:02:39.013Z,8.7
2022-10-04T07:03:39.336Z,8.7
2022-10-04T07:05:08.742Z,8.7
2022-10-04T07:06:11.546Z,8.89
2022-10-04T07:07:11.692Z,8.89
2022-10-04T07:08:11.824Z,8.89
2022-10-04T07:09:11.950Z,8.89
2022-10-04T07:10:12.083Z,8.89
2022-10-04T07:11:12.625Z,8.89
2022-10-04T07:12:12.760Z,8.89
2022-10-04T07:13:12.896Z,8.89
2022-10-04T07:14:13.057Z,8.89
2022-10-04T07:15:13.213Z,8.89
2022-10-04T07:16:13.486Z,9.2
2022-10-04T07:17:13.702Z,9.2
2022-10-04T07:18:13.834Z,9.2
2022-10-04T07:19:13.983Z,9.2
2022-10-04T07:20:14.110Z,9.2
2022-10-04T07:21:14.236Z,9.2
2022-10-04T07:22:14.359Z,9.2
2022-10-04T07:23:14.499Z,9.2
2022-10-04T07:24:14.626Z,9.2
2022-10-04T07:25:14.792Z,9.2
2022-10-04T07:26:14.946Z,9.6
2022-10-04T07:27:15.083Z,9.6
2022-10-04T07:28:15.345Z,9.6
2022-10-04T07:29:15.570Z,9.6
2022-10-04T07:30:15.698Z,9.6
2022-10-04T07:31:16.045Z,9.6
2022-10-04T07:32:16.235Z,9.6
2022-10-04T07:33:16.374Z,9.6
2022-10-04T07:34:16.511Z,9.6
2022-10-04T07:35:16.912Z,9.6
2022-10-04T07:36:22.045Z,9.89
2022-10-04T07:37:22.262Z,9.89
2022-10-04T07:38:22.396Z,9.89
2022-10-04T07:39:22.540Z,9.89
2022-10-04T07:40:22.838Z,9.89
2022-10-04T07:41:23.135Z,9.89
2022-10-04T07:42:23.259Z,9.89
2022-10-04T07:43:23.384Z,9.89
2022-10-04T07:44:23.517Z,9.89
2022-10-04T07:45:29.831Z,9.89
2022-10-04T07:46:30.723Z,10.2
2022-10-04T07:47:30.985Z,10.2
2022-10-04T07:48:31.115Z,10.2
2022-10-04T07:49:31.252Z,10.2
2022-10-04T07:50:31.377Z,10.2
2022-10-04T07:51:31.506Z,10.2
2022-10-04T07:52:31.639Z,10.2
2022-10-04T07:53:31.765Z,10.2
2022-10-04T07:54:31.897Z,10.2
2022-10-04T07:55:32.023Z,10.2
2022-10-04T07:56:32.147Z,10.5
2022-10-04T07:57:32.271Z,10.5
2022-10-04T07:58:32.399Z,10.5
2022-10-04T07:59:32.522Z,10.5
2022-10-04T08:00:32.655Z,10.5
2022-10-04T08:01:32.907Z,10.5
2022-10-04T08:02:33.374Z,10.5
2022-10-04T08:03:33.796Z,10.5
2022-10-04T08:04:34.060Z,10.5
2022-10-04T08:05:34.190Z,10.5
2022-10-04T08:06:34.348Z,10.8
2022-10-04T08:07:34.519Z,10.8
2022-10-04T08:08:34.651Z,10.8
2022-10-04T08:09:34.798Z,10.8
2022-10-04T08:10:34.940Z,10.8
2022-10-04T08:11:35.065Z,10.8
2022-10-04T08:12:35.197Z,10.8
2022-10-04T08:13:35.326Z,10.8
2022-10-04T08:14:35.460Z,10.8
2022-10-04T08:15:35.780Z,10.8
2022-10-04T08:16:36.048Z,11
2022-10-04T08:17:36.182Z,11
2022-10-04T08:18:36.315Z,11
2022-10-04T08:19:36.453Z,11
2022-10-04T08:20:36.588Z,11
2022-10-04T08:21:36.719Z,11
2022-10-04T08:22:36.856Z,11
2022-10-04T08:23:36.978Z,11
2022-10-04T08:24:37.103Z,11
2022-10-04T08:25:37.234Z,11
2022-10-04T08:26:37.363Z,11.2
2022-10-04T08:27:37.488Z,11.2
2022-10-04T08:28:37.753Z,11.2
2022-10-04T08:29:37.992Z,11.2
2022-10-04T08:30:38.121Z,11.2
2022-10-04T08:31:38.251Z,11.2
2022-10-04T08:32:38.384Z,11.2
2022-10-04T08:33:38.516Z,11.2
2022-10-04T08:34:38.648Z,11.2
2022-10-04T08:35:38.776Z,11.2
2022-10-04T08:36:38.898Z,11.5
2022-10-04T08:37:39.029Z,11.5
2022-10-04T08:38:39.164Z,11.5
2022-10-04T08:39:39.303Z,11.5
2022-10-04T08:40:39.503Z,11.5
2022-10-04T08:41:39.933Z,11.5
2022-10-04T08:42:40.069Z,11.5
2022-10-04T08:43:40.197Z,11.5
2022-10-04T08:44:40.327Z,11.5
2022-10-04T08:45:40.464Z,11.5
2022-10-04T08:46:41.393Z,11.8
2022-10-04T08:47:42.248Z,11.8
2022-10-04T08:48:42.375Z,11.8
2022-10-04T08:49:42.505Z,11.8
2022-10-04T08:50:42.628Z,11.8
2022-10-04T08:51:42.765Z,11.8
2022-10-04T08:52:42.896Z,11.8
2022-10-04T08:53:43.019Z,11.8
2022-10-04T08:54:43.143Z,11.8
2022-10-04T08:55:43.272Z,11.8
2022-10-04T08:56:43.973Z,12.2
2022-10-04T08:57:44.604Z,12.2
2022-10-04T08:58:44.742Z,12.2
2022-10-04T08:59:44.877Z,12.2
2022-10-04T09:00:45.014Z,12.2
2022-10-04T09:01:45.445Z,12.2
2022-10-04T09:02:45.757Z,12.2
2022-10-04T09:03:46.128Z,12.2
2022-10-04T09:04:46.258Z,12.2
2022-10-04T09:05:46.383Z,12.2
2022-10-04T09:06:46.868Z,12.6
2022-10-04T09:07:47.022Z,12.6
2022-10-04T09:08:47.144Z,12.6
2022-10-04T09:09:47.289Z,12.6
2022-10-04T09:10:47.415Z,12.6
2022-10-04T09:11:47.536Z,12.6
2022-10-04T09:12:47.663Z,12.6
2022-10-04T09:13:47.796Z,12.6
2022-10-04T09:14:47.926Z,12.6
2022-10-04T09:15:48.163Z,12.6
2022-10-04T09:16:48.420Z,13.1
2022-10-04T09:17:48.549Z,13.1
2022-10-04T09:18:48.715Z,13.1
2022-10-04T09:19:48.846Z,13.1
2022-10-04T09:20:48.975Z,13.1
2022-10-04T09:21:49.097Z,13.1
2022-10-04T09:22:49.226Z,13.1
2022-10-04T09:23:49.350Z,13.1
2022-10-04T09:24:49.502Z,13.1
2022-10-04T09:25:49.635Z,13.1
2022-10-04T09:26:49.767Z,13.8
2022-10-04T09:27:55.538Z,13.8
2022-10-04T09:28:55.858Z,14
2022-10-04T09:29:55.996Z,14
2022-10-04T09:30:56.281Z,14
2022-10-04T09:31:56.519Z,14
2022-10-04T09:32:56.661Z,14
2022-10-04T09:33:56.788Z,14
2022-10-04T09:34:56.919Z,14
2022-10-04T09:35:57.064Z,14.8
2022-10-04T09:36:57.229Z,14.8
2022-10-04T09:37:57.381Z,14.8
2022-10-04T09:39:30.251Z,14.8
2022-10-04T09:40:31.504Z,15.1
2022-10-04T09:41:31.636Z,15.1
2022-10-04T09:42:31.756Z,15.1
2022-10-04T09:43:31.882Z,15.1
2022-10-04T09:44:32.008Z,15.1
2022-10-04T09:45:32.132Z,15.1
2022-10-04T09:46:32.350Z,15.6
2022-10-04T09:47:32.584Z,15.6
2022-10-04T09:48:32.705Z,15.6
2022-10-04T09:49:32.847Z,15.6
2022-10-04T09:50:32.972Z,15.6
2022-10-04T09:51:33.097Z,15.6
2022-10-04T09:52:33.227Z,15.6
2022-10-04T09:53:33.359Z,15.6
2022-10-04T09:54:33.483Z,15.6
2022-10-04T09:55:33.605Z,15.6
2022-10-04T09:56:33.733Z,16.29
2022-10-04T09:57:33.855Z,16.29
2022-10-04T09:58:33.984Z,16.29
2022-10-04T09:59:34.122Z,16.29
2022-10-04T10:00:34.252Z,16.29
2022-10-04T10:01:34.543Z,16.29
2022-10-04T10:02:34.934Z,16.29
2022-10-04T10:03:35.148Z,16.29
2022-10-04T10:04:35.279Z,16.29
2022-10-04T10:05:35.411Z,16.29
2022-10-04T10:06:35.541Z,16.5
2022-10-04T10:07:35.665Z,16.5
2022-10-04T10:08:35.803Z,16.5
2022-10-04T10:09:35.931Z,16.5
2022-10-04T10:10:36.055Z,16.5
2022-10-04T10:11:36.182Z,16.5
2022-10-04T10:12:36.324Z,16.5
2022-10-04T10:13:36.454Z,16.5
2022-10-04T10:14:36.583Z,16.5
2022-10-04T10:15:36.788Z,16.5
2022-10-04T10:16:36.987Z,16.79
2022-10-04T10:17:37.118Z,16.79
2022-10-04T10:18:37.243Z,16.79
2022-10-04T10:19:37.367Z,16.79
2022-10-04T10:20:37.504Z,16.79
2022-10-04T10:21:37.627Z,16.79
2022-10-04T10:22:37.755Z,16.79
2022-10-04T10:23:37.883Z,16.79
2022-10-04T10:24:38.030Z,16.79
2022-10-04T10:25:38.162Z,16.79
2022-10-04T10:26:38.290Z,17.6
2022-10-04T10:27:38.416Z,17.6
2022-10-04T10:28:38.709Z,17.6
2022-10-04T10:29:39.086Z,17.6
2022-10-04T10:30:39.213Z,17.6
2022-10-04T10:31:39.483Z,17.6
2022-10-04T10:32:39.741Z,17.6
2022-10-04T10:33:39.863Z,17.6
2022-10-04T10:34:39.998Z,17.6
2022-10-04T10:35:40.127Z,17.6
2022-10-04T10:36:40.259Z,18.5
2022-10-04T10:37:40.383Z,18.5
2022-10-04T10:38:40.510Z,18.5
2022-10-04T10:39:40.637Z,18.5
2022-10-04T10:40:40.791Z,18.5
2022-10-04T10:41:40.946Z,18.5
2022-10-04T10:42:41.080Z,18.5
2022-10-04T10:43:41.204Z,18.5
2022-10-04T10:44:41.336Z,18.5
2022-10-04T10:45:41.460Z,18.5
2022-10-04T10:46:41.792Z,19.4
2022-10-04T10:47:42.144Z,19.4
2022-10-04T10:48:42.267Z,19.4
2022-10-04T10:49:42.397Z,19.4
2022-10-04T10:50:42.520Z,19.4
2022-10-04T10:51:42.651Z,19.4
2022-10-04T10:52:42.788Z,19.4
2022-10-04T10:53:42.935Z,19.4
2022-10-04T10:54:43.064Z,19.4
2022-10-04T10:55:43.190Z,19.4
2022-10-04T10:56:44.026Z,19.6
2022-10-04T10:57:44.721Z,19.6
2022-10-04T10:58:44.847Z,19.6
2022-10-04T10:59:44.982Z,19.6
2022-10-04T11:00:45.109Z,19.6
2022-10-04T11:01:45.578Z,19.6
2022-10-04T11:02:51.001Z,19.6
2022-10-04T11:03:51.740Z,19.6
2022-10-04T11:04:52.115Z,19.6
2022-10-04T11:05:52.246Z,19.79
2022-10-04T11:06:52.371Z,19.79
2022-10-04T11:07:52.499Z,19.79
2022-10-04T11:08:52.624Z,19.79
2022-10-04T11:09:52.747Z,19.79
2022-10-04T11:10:52.880Z,19.79
2022-10-04T11:11:53.006Z,19.79
2022-10-04T11:12:53.135Z,19.79
2022-10-04T11:13:53.263Z,19.79
2022-10-04T11:14:53.393Z,19.79
2022-10-04T11:15:53.585Z,20.5
2022-10-04T11:16:53.792Z,20.5
2022-10-04T11:17:53.924Z,20.5
2022-10-04T11:18:54.050Z,20.5
2022-10-04T11:19:54.176Z,20.5
2022-10-04T11:20:54.310Z,20.5
2022-10-04T11:21:54.439Z,20.5
2022-10-04T11:22:54.562Z,20.5
2022-10-04T11:23:54.692Z,21.5
2022-10-04T11:24:54.825Z,21.5
2022-10-04T11:25:54.952Z,21.5
2022-10-04T11:26:55.088Z,21.5
2022-10-04T11:27:57.619Z,21.5
2022-10-04T11:28:57.995Z,21.5
2022-10-04T11:29:58.137Z,21.5
2022-10-04T11:30:58.369Z,22.5
2022-10-04T11:31:58.673Z,22.5
2022-10-04T11:32:58.799Z,22.5
2022-10-04T11:33:58.929Z,22.5
2022-10-04T11:34:59.057Z,22.5
2022-10-04T11:35:59.182Z,22.5
2022-10-04T11:36:59.349Z,22.5
2022-10-04T11:37:59.506Z,23.5
2022-10-04T11:38:59.626Z,23.5
2022-10-04T11:39:59.749Z,23.5
2022-10-04T11:40:59.878Z,23.5
2022-10-04T11:42:00.005Z,23.5
2022-10-04T11:43:00.132Z,23.5
2022-10-04T11:44:00.273Z,23.5
2022-10-04T11:45:00.403Z,24.5
2022-10-04T11:46:00.530Z,24.5
2022-10-04T11:47:00.851Z,24.5
2022-10-04T11:48:01.093Z,24.5
2022-10-04T11:49:01.229Z,24.5
2022-10-04T11:50:01.436Z,24.5
2022-10-04T11:51:01.568Z,24.5
2022-10-04T11:52:02.925Z,25.5
2022-10-04T11:53:03.067Z,25.5
2022-10-04T11:54:03.202Z,25.5
2022-10-04T11:55:03.345Z,25.5
2022-10-04T11:56:03.479Z,25.5
2022-10-04T11:57:03.608Z,25.5
2022-10-04T11:58:09.788Z,25.5
2022-10-04T11:59:12.346Z,26.2
2022-10-04T12:00:12.478Z,26.2
2022-10-04T12:01:12.601Z,26.5
2022-10-04T12:02:12.727Z,26.5
2022-10-04T12:03:12.961Z,26.5
2022-10-04T12:04:13.416Z,26.5
2022-10-04T12:05:13.865Z,26.5
2022-10-04T12:06:14.080Z,26.5
2022-10-04T12:07:14.285Z,26.5
2022-10-04T12:08:14.414Z,26.5
2022-10-04T12:09:14.546Z,26.5
2022-10-04T12:10:14.671Z,27.5
2022-10-04T12:11:14.820Z,27.5
2022-10-04T12:12:14.952Z,27.5
2022-10-04T12:13:15.086Z,27.5
2022-10-04T12:14:15.213Z,27.5
2022-10-04T12:15:15.339Z,27.5
2022-10-04T12:16:15.602Z,27.5
2022-10-04T12:17:15.828Z,27.5
2022-10-04T12:18:15.961Z,27.5
2022-10-04T12:19:16.088Z,27.5
2022-10-04T12:20:16.214Z,28.3
2022-10-04T12:21:16.345Z,28.3
2022-10-04T12:22:16.486Z,28.3
2022-10-04T12:23:16.626Z,28.3
2022-10-04T12:24:16.753Z,28.3
2022-10-04T12:25:16.882Z,28.3
2022-10-04T12:26:19.555Z,28.3
2022-10-04T12:27:19.720Z,28.3
2022-10-04T12:28:19.969Z,28.3
2022-10-04T12:29:20.185Z,28.3
2022-10-04T12:30:20.311Z,28.8
2022-10-04T12:31:20.551Z,28.8
2022-10-04T12:32:20.761Z,28.8
2022-10-04T12:33:20.897Z,28.8
2022-10-04T12:34:21.025Z,28.8
2022-10-04T12:35:21.151Z,28.8
2022-10-04T12:36:21.281Z,28.8
2022-10-04T12:37:21.403Z,28.8
2022-10-04T12:38:21.536Z,28.8
2022-10-04T12:39:21.667Z,28.8
2022-10-04T12:40:21.793Z,29
2022-10-04T12:41:21.922Z,29
2022-10-04T12:42:22.051Z,29
2022-10-04T12:43:22.208Z,29
2022-10-04T12:44:22.372Z,29
2022-10-04T12:45:22.522Z,29
2022-10-04T12:46:22.830Z,29
2022-10-04T12:47:22.992Z,29
2022-10-04T12:48:23.125Z,29
2022-10-04T12:49:23.255Z,29
2022-10-04T12:50:23.378Z,28.9
2022-10-04T12:51:23.510Z,28.9
2022-10-04T12:52:23.638Z,28.9
2022-10-04T12:53:23.768Z,28.9
2022-10-04T12:54:23.897Z,28.9
2022-10-04T12:55:24.022Z,28.9
2022-10-04T12:56:24.148Z,28.9
2022-10-04T12:57:24.275Z,28.9
2022-10-04T12:58:24.398Z,28.9
2022-10-04T12:59:24.536Z,28.9
2022-10-04T13:00:24.660Z,28.4
2022-10-04T13:01:24.843Z,28.4
2022-10-04T13:02:25.163Z,28.4
2022-10-04T13:03:25.350Z,28.4
2022-10-04T13:04:25.475Z,28.4
2022-10-04T13:05:25.614Z,28.4
2022-10-04T13:06:25.758Z,28.4
2022-10-04T13:07:25.881Z,28.4
2022-10-04T13:08:26.006Z,28.4
2022-10-04T13:09:26.131Z,28.4
2022-10-04T13:10:26.681Z,27.9
2022-10-04T13:11:27.022Z,27.9
2022-10-04T13:12:27.154Z,27.9
2022-10-04T13:13:27.285Z,27.9
2022-10-04T13:14:27.414Z,27.9
2022-10-04T13:15:27.897Z,27.9
2022-10-04T13:17:36.543Z,27.9
2022-10-04T13:18:36.843Z,27.7
2022-10-04T13:19:36.971Z,27.7
2022-10-04T13:20:37.102Z,27.7
2022-10-04T13:21:37.237Z,27.7
2022-10-04T13:22:57.544Z,27.7
2022-10-04T13:23:58.470Z,27.7
2022-10-04T13:24:58.600Z,27.7
2022-10-04T13:26:04.262Z,27.7
2022-10-04T13:27:04.675Z,27.7
2022-10-04T13:28:04.997Z,27.7
2022-10-04T13:29:05.180Z,27.7
2022-10-04T13:30:05.306Z,27.7
2022-10-04T13:31:05.574Z,27.7
2022-10-04T13:32:06.001Z,27.7
2022-10-04T13:33:06.273Z,27.7
2022-10-04T13:34:06.405Z,27.7
2022-10-04T13:35:06.530Z,27.7
2022-10-04T13:36:06.662Z,27.7
2022-10-04T13:37:06.797Z,27.7
2022-10-04T13:38:06.923Z,27.7
2022-10-04T13:39:07.054Z,27.7
2022-10-04T13:40:07.192Z,27.7
2022-10-04T13:41:07.321Z,27.9